Time;durP1;ratioP1;P1;durP2;ratioP2;P2;SDS_P1;SDS_P2;PMS_P1;PMS_P2;Temp;Humidity;BMP_temperature;BMP_pressure;BME280_temperature;BME280_humidity;BME280_pressure;Samples;Min_cycle;Max_cycle;Signal;HPM_P1;HPM_P2
2022/10/20 00:01:14;;;;;;;13.10;9.00;;;5.00;99.90;;;;;;5088957;28;20198;-45
2022/10/20 00:03:40;;;;;;;12.10;9.63;;;5.00;99.90;;;;;;5087848;28;20283;-44
2022/10/20 00:06:11;;;;;;;12.57;8.90;;;4.90;99.90;;;;;;5088104;28;20460;-45
2022/10/20 00:08:38;;;;;;;11.65;8.75;;;4.90;99.90;;;;;;5087909;28;20704;-46
2022/10/20 00:11:05;;;;;;;11.55;8.85;;;4.90;99.90;;;;;;5089688;28;20182;-45
2022/10/20 00:13:31;;;;;;;11.20;9.10;;;4.90;99.90;;;;;;5087335;28;20177;-44
2022/10/20 00:15:58;;;;;;;11.70;10.05;;;4.90;99.90;;;;;;5089439;28;20661;-47
2022/10/20 00:18:24;;;;;;;11.32;9.20;;;5.00;99.90;;;;;;5086728;28;21698;-46
2022/10/20 00:20:50;;;;;;;11.68;8.82;;;4.90;99.90;;;;;;5088829;28;20216;-47
2022/10/20 00:23:16;;;;;;;11.23;9.30;;;5.00;99.90;;;;;;5087485;28;20185;-48
2022/10/20 00:25:42;;;;;;;13.40;9.27;;;5.00;99.90;;;;;;5088474;28;20264;-45
2022/10/20 00:28:07;;;;;;;12.00;9.50;;;5.00;99.90;;;;;;5087618;28;20280;-46
2022/10/20 00:30:34;;;;;;;13.90;8.97;;;5.10;99.90;;;;;;5086715;28;20195;-43
2022/10/20 00:33:01;;;;;;;14.18;9.40;;;5.10;99.90;;;;;;5070606;28;20271;-46
2022/10/20 00:35:27;;;;;;;14.63;8.50;;;5.10;99.90;;;;;;5087353;28;20406;-47
2022/10/20 00:37:53;;;;;;;17.48;8.55;;;5.10;99.90;;;;;;5087700;28;20189;-46
2022/10/20 00:40:19;;;;;;;13.13;9.10;;;5.10;99.90;;;;;;5087964;28;20204;-44
2022/10/20 00:42:45;;;;;;;13.40;9.20;;;5.10;99.90;;;;;;5087280;28;20242;-45
2022/10/20 00:45:12;;;;;;;16.23;9.35;;;5.00;99.90;;;;;;5089020;28;20185;-46
2022/10/20 00:47:48;;;;;;;12.63;10.35;;;5.00;99.90;;;;;;5088826;28;20205;-46
2022/10/20 00:50:26;;;;;;;12.18;8.85;;;5.00;99.90;;;;;;5086850;28;20189;-44
2022/10/20 00:52:54;;;;;;;15.50;9.90;;;5.00;99.90;;;;;;5087254;28;20195;-43
2022/10/20 00:55:25;;;;;;;20.85;10.18;;;5.10;99.90;;;;;;5088397;28;20292;-42
2022/10/20 00:57:52;;;;;;;17.27;10.23;;;5.10;99.90;;;;;;5087260;28;20188;-44
2022/10/20 01:00:18;;;;;;;15.55;9.25;;;5.10;99.90;;;;;;5088251;28;20225;-44
2022/10/20 01:02:44;;;;;;;13.40;9.40;;;5.20;99.90;;;;;;5085418;28;20233;-46
2022/10/20 01:05:11;;;;;;;15.82;10.82;;;5.10;99.90;;;;;;5087091;28;20232;-47
2022/10/20 01:07:36;;;;;;;13.13;9.23;;;5.20;99.90;;;;;;5062523;28;20209;-46
2022/10/20 01:10:04;;;;;;;17.27;10.10;;;5.20;99.90;;;;;;5084119;28;20558;-44
2022/10/20 01:12:43;;;;;;;18.63;10.93;;;5.30;99.90;;;;;;5069564;28;20209;-47
2022/10/20 01:15:18;;;;;;;18.45;9.82;;;5.30;99.90;;;;;;5087792;28;20189;-47
2022/10/20 01:18:09;;;;;;;49.28;11.73;;;5.30;99.90;;;;;;5086536;28;20245;-43
2022/10/20 01:20:47;;;;;;;38.05;10.77;;;5.30;99.90;;;;;;5082982;28;20198;-45
2022/10/20 01:23:45;;;;;;;26.70;10.60;;;5.30;99.90;;;;;;5086408;28;20682;-45
2022/10/20 01:26:18;;;;;;;24.15;10.65;;;5.30;99.90;;;;;;5087967;28;20557;-47
2022/10/20 01:29:03;;;;;;;22.27;10.35;;;5.40;99.90;;;;;;5086189;28;20213;-46
2022/10/20 01:31:32;;;;;;;13.38;9.90;;;5.40;99.90;;;;;;5084713;28;20663;-43
2022/10/20 01:34:09;;;;;;;22.48;10.77;;;5.40;99.90;;;;;;5087899;28;20193;-44
2022/10/20 01:36:40;;;;;;;20.70;11.60;;;5.50;99.90;;;;;;5086963;28;20205;-45
2022/10/20 01:39:15;;;;;;;14.63;10.63;;;5.50;99.90;;;;;;5086771;28;20197;-48
2022/10/20 01:41:40;;;;;;;17.52;11.65;;;5.50;99.90;;;;;;5086129;28;20200;-44
2022/10/20 01:44:10;;;;;;;14.53;10.00;;;5.50;99.90;;;;;;5088366;28;20209;-44
2022/10/20 01:46:38;;;;;;;19.25;10.52;;;5.50;99.90;;;;;;5087514;28;20270;-47
2022/10/20 01:49:06;;;;;;;13.50;10.52;;;5.50;99.90;;;;;;5084505;28;20197;-43
2022/10/20 01:51:31;;;;;;;14.85;10.88;;;5.40;99.90;;;;;;5087502;28;20188;-44
2022/10/20 01:53:57;;;;;;;13.27;10.33;;;5.30;99.90;;;;;;5086237;28;20189;-47
2022/10/20 01:56:40;;;;;;;15.13;10.20;;;5.40;99.90;;;;;;5085699;28;20210;-46
2022/10/20 01:59:29;;;;;;;12.63;9.90;;;5.30;99.90;;;;;;5087000;28;20651;-47
2022/10/20 02:02:13;;;;;;;14.07;10.40;;;5.20;99.90;;;;;;5085586;28;20595;-49
2022/10/20 02:04:47;;;;;;;12.05;8.75;;;5.20;99.90;;;;;;5087541;28;20197;-46
2022/10/20 02:07:25;;;;;;;14.55;10.15;;;5.10;99.90;;;;;;5085805;28;20587;-44
2022/10/20 02:09:56;;;;;;;12.45;9.45;;;5.00;99.90;;;;;;5087471;28;20206;-47
2022/10/20 02:12:27;;;;;;;13.80;9.18;;;5.00;99.90;;;;;;5087369;28;20199;-46
2022/10/20 02:14:53;;;;;;;13.25;9.00;;;5.00;99.90;;;;;;5087180;28;20500;-45
2022/10/20 02:17:19;;;;;;;10.65;8.98;;;4.90;99.90;;;;;;5086681;28;20192;-46
2022/10/20 02:19:47;;;;;;;11.88;8.60;;;4.90;99.90;;;;;;5085766;28;20584;-45
2022/10/20 02:22:15;;;;;;;11.52;8.95;;;4.90;99.90;;;;;;5068188;28;20197;-48
2022/10/20 02:24:41;;;;;;;13.05;9.70;;;4.80;99.90;;;;;;5085569;28;20191;-44
2022/10/20 02:27:17;;;;;;;11.20;9.10;;;4.80;99.90;;;;;;5087052;28;20223;-46
2022/10/20 02:29:55;;;;;;;13.00;9.82;;;4.80;99.90;;;;;;5086557;28;20231;-44
2022/10/20 02:32:23;;;;;;;12.13;9.32;;;4.70;99.90;;;;;;5086125;28;20188;-47
2022/10/20 02:34:48;;;;;;;12.82;9.80;;;4.80;99.90;;;;;;5085928;28;20550;-44
2022/10/20 02:37:14;;;;;;;12.00;9.40;;;4.80;99.90;;;;;;5089997;28;20192;-45
2022/10/20 02:39:40;;;;;;;12.97;8.53;;;4.70;99.90;;;;;;5088335;28;20215;-43
2022/10/20 02:42:05;;;;;;;11.30;8.77;;;4.70;99.90;;;;;;5089854;28;20462;-47
2022/10/20 02:44:31;;;;;;;12.40;8.90;;;4.80;99.90;;;;;;5089292;28;20196;-45
2022/10/20 02:46:57;;;;;;;11.17;8.73;;;4.80;99.90;;;;;;5091364;28;20693;-44
2022/10/20 02:49:24;;;;;;;12.80;9.50;;;4.80;99.90;;;;;;5089925;28;20208;-45
2022/10/20 02:51:49;;;;;;;13.93;9.23;;;4.90;99.90;;;;;;5089132;28;20777;-43
2022/10/20 02:54:15;;;;;;;11.70;8.40;;;4.90;99.90;;;;;;5090925;28;20188;-44
2022/10/20 02:56:41;;;;;;;11.10;8.80;;;4.90;99.90;;;;;;5090113;28;20462;-44
2022/10/20 02:59:10;;;;;;;13.30;9.43;;;5.00;99.90;;;;;;5090400;28;20282;-42
2022/10/20 03:01:35;;;;;;;12.10;8.70;;;5.10;99.90;;;;;;5089985;28;20559;-45
2022/10/20 03:04:01;;;;;;;13.00;9.37;;;5.20;99.90;;;;;;5090410;28;20309;-47
2022/10/20 03:06:26;;;;;;;12.77;8.60;;;5.30;99.90;;;;;;5088677;28;20264;-43
2022/10/20 03:08:52;;;;;;;11.03;8.87;;;5.60;99.90;;;;;;5089066;28;20184;-47
2022/10/20 03:11:18;;;;;;;14.43;10.13;;;5.70;99.90;;;;;;5089206;28;20543;-45
2022/10/20 03:13:43;;;;;;;15.90;8.90;;;5.80;99.90;;;;;;5090146;28;20190;-44
2022/10/20 03:16:09;;;;;;;12.90;10.20;;;6.00;99.90;;;;;;5090090;28;20198;-44
2022/10/20 03:18:34;;;;;;;12.77;9.57;;;6.20;99.90;;;;;;5090065;28;20196;-49
2022/10/20 03:21:00;;;;;;;14.40;10.03;;;6.30;99.90;;;;;;5089348;28;20638;-44
2022/10/20 03:23:25;;;;;;;14.43;10.20;;;6.40;99.90;;;;;;5088667;28;20281;-45
2022/10/20 03:25:51;;;;;;;14.70;10.10;;;6.50;99.90;;;;;;5089140;28;20225;-46
2022/10/20 03:28:16;;;;;;;15.70;10.67;;;6.50;99.90;;;;;;5089063;28;20191;-43
2022/10/20 03:30:42;;;;;;;19.50;10.60;;;6.60;99.90;;;;;;5088559;28;20267;-44
2022/10/20 03:33:08;;;;;;;13.83;10.73;;;6.70;99.90;;;;;;5090107;28;20194;-45
2022/10/20 03:35:33;;;;;;;14.50;10.00;;;6.80;99.90;;;;;;5088904;28;20364;-51
2022/10/20 03:37:59;;;;;;;13.47;10.93;;;6.80;99.90;;;;;;5088896;28;20223;-49
2022/10/20 03:40:25;;;;;;;13.80;10.20;;;6.80;99.90;;;;;;5089694;28;20192;-44
2022/10/20 03:42:50;;;;;;;14.40;10.63;;;6.90;99.90;;;;;;5089085;28;20252;-47
2022/10/20 03:45:16;;;;;;;12.37;10.63;;;7.00;99.90;;;;;;5088627;28;20807;-48
2022/10/20 03:47:41;;;;;;;16.07;10.20;;;7.00;99.90;;;;;;5088604;28;20378;-42
2022/10/20 03:50:07;;;;;;;18.87;10.87;;;7.10;99.90;;;;;;5088333;28;20196;-45
2022/10/20 03:52:33;;;;;;;16.33;10.07;;;7.10;99.90;;;;;;5088861;28;20196;-45
2022/10/20 03:54:58;;;;;;;13.33;9.77;;;7.20;99.90;;;;;;5087371;28;20456;-43
2022/10/20 03:57:24;;;;;;;17.47;9.80;;;7.20;99.90;;;;;;5089513;28;20200;-45
2022/10/20 03:59:49;;;;;;;10.50;9.20;;;7.30;99.90;;;;;;5087662;28;20215;-46
2022/10/20 04:02:26;;;;;;;12.43;9.17;;;7.30;99.90;;;;;;5090087;28;20296;-44
2022/10/20 04:04:51;;;;;;;11.87;9.07;;;7.40;99.90;;;;;;5088632;28;20202;-48
2022/10/20 04:07:17;;;;;;;12.63;8.33;;;7.40;99.90;;;;;;5087596;28;21296;-44
2022/10/20 04:09:42;;;;;;;10.53;8.40;;;7.40;99.90;;;;;;5087279;28;20203;-46
2022/10/20 04:12:08;;;;;;;10.50;8.23;;;7.40;99.90;;;;;;5088868;28;20194;-47
2022/10/20 04:14:33;;;;;;;10.20;8.40;;;7.40;99.90;;;;;;5087663;28;20206;-45
2022/10/20 04:16:59;;;;;;;10.17;8.00;;;7.40;99.90;;;;;;5080665;28;20205;-46
2022/10/20 04:19:24;;;;;;;8.63;7.40;;;7.30;99.90;;;;;;5080054;28;20213;-50
2022/10/20 04:21:50;;;;;;;8.03;7.03;;;7.40;99.90;;;;;;5078942;28;20258;-44
2022/10/20 04:24:15;;;;;;;8.90;7.17;;;7.50;99.90;;;;;;5070799;28;20437;-46
2022/10/20 04:26:41;;;;;;;7.53;6.70;;;7.60;99.90;;;;;;5080847;28;20555;-46
2022/10/20 04:29:06;;;;;;;8.00;6.97;;;7.60;99.90;;;;;;5079891;28;20200;-45
2022/10/20 04:31:32;;;;;;;7.67;6.87;;;7.70;99.90;;;;;;5080845;28;20191;-45
2022/10/20 04:33:58;;;;;;;7.60;6.60;;;7.70;99.90;;;;;;5078756;28;20557;-46
2022/10/20 04:36:23;;;;;;;6.67;5.90;;;7.70;99.90;;;;;;5079521;28;20657;-46
2022/10/20 04:38:49;;;;;;;7.20;5.83;;;7.70;99.90;;;;;;5079101;28;20278;-45
2022/10/20 04:41:14;;;;;;;7.43;5.57;;;7.70;99.90;;;;;;5087377;28;20199;-45
2022/10/20 04:43:40;;;;;;;7.47;5.73;;;7.70;99.90;;;;;;5088375;28;20215;-45
2022/10/20 04:46:06;;;;;;;6.43;5.77;;;7.80;99.90;;;;;;5089064;28;20678;-46
2022/10/20 04:48:31;;;;;;;6.70;5.90;;;7.80;99.90;;;;;;5086729;28;20555;-44
2022/10/20 04:51:06;;;;;;;7.20;6.50;;;7.80;99.90;;;;;;5085287;28;20436;-45
2022/10/20 04:53:31;;;;;;;7.20;5.83;;;7.70;99.90;;;;;;5079327;28;20229;-48
2022/10/20 04:55:57;;;;;;;6.37;5.77;;;7.80;99.90;;;;;;5088983;28;20458;-48
2022/10/20 04:58:24;;;;;;;8.57;6.17;;;7.80;99.90;;;;;;5089225;28;20279;-46
2022/10/20 05:00:49;;;;;;;8.33;6.50;;;7.80;99.90;;;;;;5087818;28;20299;-47
2022/10/20 05:03:15;;;;;;;7.33;6.20;;;7.80;99.90;;;;;;5089030;28;20509;-45
2022/10/20 05:05:41;;;;;;;7.37;6.20;;;7.80;99.90;;;;;;5088500;28;20238;-45
2022/10/20 05:08:06;;;;;;;7.00;6.30;;;7.80;99.90;;;;;;5088922;28;20421;-45
2022/10/20 05:10:32;;;;;;;7.47;6.13;;;7.80;99.90;;;;;;5088873;28;20273;-44
2022/10/20 05:12:57;;;;;;;6.73;6.03;;;7.90;99.90;;;;;;5089328;28;20258;-47
2022/10/20 05:15:23;;;;;;;7.07;5.87;;;7.90;99.90;;;;;;5088679;28;20199;-44
2022/10/20 05:17:48;;;;;;;7.40;5.93;;;7.90;99.90;;;;;;5088871;28;20202;-48
2022/10/20 05:20:14;;;;;;;7.23;6.37;;;7.90;99.90;;;;;;5088605;28;20211;-50
2022/10/20 05:22:40;;;;;;;6.90;6.00;;;7.90;99.90;;;;;;5087840;28;21024;-46
2022/10/20 05:25:06;;;;;;;6.43;5.60;;;7.90;99.90;;;;;;5088622;28;20192;-45
2022/10/20 05:27:31;;;;;;;7.90;6.27;;;7.90;99.90;;;;;;5088525;28;20207;-45
2022/10/20 05:29:57;;;;;;;7.07;6.00;;;7.90;99.90;;;;;;5088618;28;20455;-48
2022/10/20 05:32:22;;;;;;;7.40;6.70;;;8.00;99.90;;;;;;5088234;28;20715;-43
2022/10/20 05:34:48;;;;;;;8.20;6.93;;;8.00;99.90;;;;;;5088421;28;20669;-43
2022/10/20 05:37:13;;;;;;;8.33;6.13;;;8.10;99.90;;;;;;5086850;28;20572;-45
2022/10/20 05:39:39;;;;;;;8.03;6.97;;;8.00;99.90;;;;;;5088628;28;20206;-45
2022/10/20 05:42:05;;;;;;;8.50;6.00;;;8.00;99.90;;;;;;5088485;28;20224;-46
2022/10/20 05:44:30;;;;;;;7.23;6.53;;;8.00;99.90;;;;;;5088495;28;20196;-45
2022/10/20 05:46:56;;;;;;;13.60;12.33;;;8.00;99.90;;;;;;5087263;28;20215;-44
2022/10/20 05:49:22;;;;;;;7.73;6.93;;;8.00;99.90;;;;;;5088770;28;20192;-45
2022/10/20 05:51:48;;;;;;;10.10;7.27;;;8.00;99.90;;;;;;5086356;28;20554;-46
2022/10/20 05:54:14;;;;;;;9.27;7.30;;;8.10;99.90;;;;;;5087412;28;20439;-43
2022/10/20 05:56:40;;;;;;;8.40;6.97;;;8.10;99.90;;;;;;5067584;28;20438;-43
2022/10/20 05:59:06;;;;;;;8.27;6.80;;;8.10;99.90;;;;;;5088412;28;20436;-47
2022/10/20 06:01:46;;;;;;;7.40;6.30;;;8.20;99.90;;;;;;5088418;28;20505;-48
2022/10/20 06:04:12;;;;;;;7.90;7.10;;;8.20;99.90;;;;;;5088151;28;20657;-43
2022/10/20 06:06:37;;;;;;;8.30;7.40;;;8.20;99.90;;;;;;5088067;28;20828;-45
2022/10/20 06:09:06;;;;;;;7.80;6.73;;;8.30;99.90;;;;;;5088378;28;20440;-45
2022/10/20 06:11:32;;;;;;;8.07;7.23;;;8.30;99.90;;;;;;5090577;28;20291;-44
2022/10/20 06:13:58;;;;;;;7.90;6.50;;;8.30;99.90;;;;;;5092155;28;20517;-45
2022/10/20 06:16:25;;;;;;;8.10;7.30;;;8.40;99.90;;;;;;5092309;28;20454;-44
2022/10/20 06:18:51;;;;;;;7.87;7.10;;;8.40;99.90;;;;;;5091816;28;20524;-45
2022/10/20 06:21:22;;;;;;;8.13;6.70;;;8.40;99.90;;;;;;5090560;28;20818;-44
2022/10/20 06:23:48;;;;;;;7.67;6.87;;;8.40;99.90;;;;;;5091781;28;20457;-46
2022/10/20 06:26:17;;;;;;;10.43;7.53;;;8.40;99.90;;;;;;5091541;28;20908;-43
2022/10/20 06:28:44;;;;;;;9.30;7.87;;;8.40;99.90;;;;;;5091893;28;20913;-45
2022/10/20 06:31:21;;;;;;;9.33;6.97;;;8.50;99.90;;;;;;5091571;28;20471;-45
2022/10/20 06:33:47;;;;;;;8.17;7.10;;;8.60;99.90;;;;;;5091672;28;20505;-44
2022/10/20 06:36:13;;;;;;;8.10;7.23;;;8.60;99.90;;;;;;5091459;28;20509;-46
2022/10/20 06:38:40;;;;;;;10.90;7.50;;;8.60;99.90;;;;;;5091539;28;20432;-45
2022/10/20 06:41:08;;;;;;;7.57;6.77;;;8.60;99.90;;;;;;5091499;28;20426;-48
2022/10/20 06:43:33;;;;;;;8.13;7.20;;;8.70;99.90;;;;;;5091267;28;20437;-47
2022/10/20 06:46:02;;;;;;;8.90;7.27;;;8.70;99.90;;;;;;5072960;28;20821;-43
2022/10/20 06:48:28;;;;;;;8.80;7.80;;;8.80;99.90;;;;;;5088612;28;20254;-46
2022/10/20 06:51:14;;;;;;;11.83;7.77;;;8.80;99.90;;;;;;5087690;28;20442;-46
2022/10/20 06:53:41;;;;;;;10.80;8.40;;;8.90;99.90;;;;;;5087662;28;20713;-44
2022/10/20 06:56:11;;;;;;;8.73;7.40;;;8.80;99.90;;;;;;5091483;28;20797;-45
2022/10/20 06:58:38;;;;;;;8.50;7.13;;;8.90;99.90;;;;;;5091195;28;20426;-45
2022/10/20 07:01:35;;;;;;;8.60;7.67;;;8.90;99.90;;;;;;5091206;28;20425;-44
2022/10/20 07:04:09;;;;;;;8.80;7.90;;;8.90;99.90;;;;;;5073613;28;20434;-43
2022/10/20 07:06:38;;;;;;;8.57;6.83;;;9.00;99.90;;;;;;5090605;28;20492;-48
2022/10/20 07:09:10;;;;;;;8.53;7.60;;;9.00;99.90;;;;;;5091159;28;20794;-43
2022/10/20 07:11:35;;;;;;;7.93;7.00;;;9.00;99.90;;;;;;5090843;28;20423;-46
2022/10/20 07:14:02;;;;;;;8.23;7.37;;;9.00;99.90;;;;;;5089602;28;20429;-46
2022/10/20 07:16:30;;;;;;;7.77;6.97;;;9.10;99.90;;;;;;5089591;28;20212;-51
2022/10/20 07:18:56;;;;;;;7.67;6.87;;;9.20;99.90;;;;;;5090962;28;20423;-46
2022/10/20 07:21:27;;;;;;;9.93;7.40;;;9.20;99.90;;;;;;5090402;28;20422;-44
2022/10/20 07:23:56;;;;;;;8.50;6.90;;;9.30;99.90;;;;;;5090671;28;20423;-45
2022/10/20 07:26:27;;;;;;;7.27;6.50;;;9.40;99.90;;;;;;5090447;28;20551;-44
2022/10/20 07:28:56;;;;;;;8.37;7.10;;;9.40;99.90;;;;;;5090590;28;20454;-45
2022/10/20 07:31:29;;;;;;;8.70;7.03;;;9.50;99.90;;;;;;5090412;28;20411;-46
2022/10/20 07:33:57;;;;;;;9.57;6.33;;;9.60;99.90;;;;;;5090570;28;20426;-46
2022/10/20 07:36:28;;;;;;;7.23;6.33;;;9.70;99.90;;;;;;5090632;28;21339;-45
2022/10/20 07:38:55;;;;;;;7.50;6.80;;;9.80;99.90;;;;;;5090411;28;20427;-48
2022/10/20 07:41:21;;;;;;;7.37;6.67;;;9.90;99.90;;;;;;5090249;28;20434;-45
2022/10/20 07:43:47;;;;;;;8.40;6.27;;;10.20;99.90;;;;;;5090228;28;20796;-43
2022/10/20 07:46:13;;;;;;;6.93;6.23;;;10.30;99.90;;;;;;5085578;28;20501;-44
2022/10/20 07:48:40;;;;;;;6.57;5.87;;;10.60;99.90;;;;;;5090171;28;20422;-44
2022/10/20 07:51:15;;;;;;;7.33;6.63;;;10.90;99.90;;;;;;5090344;28;20519;-44
2022/10/20 07:53:41;;;;;;;7.70;7.00;;;11.30;99.90;;;;;;5090297;28;20425;-47
2022/10/20 07:56:07;;;;;;;6.50;5.90;;;11.80;99.90;;;;;;5088789;28;20438;-47
2022/10/20 07:58:33;;;;;;;7.00;6.30;;;12.30;99.90;;;;;;5089901;28;20969;-45
2022/10/20 08:00:58;;;;;;;8.13;6.20;;;12.70;99.90;;;;;;5090025;28;20434;-43
2022/10/20 08:03:24;;;;;;;6.73;6.13;;;13.00;99.90;;;;;;5089597;28;20194;-47
2022/10/20 08:05:49;;;;;;;7.10;6.50;;;13.40;99.90;;;;;;5089682;28;20235;-45
2022/10/20 08:08:15;;;;;;;7.80;7.10;;;13.90;99.90;;;;;;5089795;28;20700;-46
2022/10/20 08:10:40;;;;;;;7.40;6.80;;;14.30;99.90;;;;;;5089906;28;20219;-46
2022/10/20 08:13:06;;;;;;;10.40;7.83;;;14.80;98.60;;;;;;5089102;28;20192;-45
2022/10/20 08:15:32;;;;;;;7.40;6.80;;;14.80;96.70;;;;;;5089586;28;20280;-43
2022/10/20 08:17:57;;;;;;;7.83;6.90;;;15.10;96.30;;;;;;5089647;28;20284;-44
2022/10/20 08:20:23;;;;;;;7.83;7.10;;;15.30;95.80;;;;;;5089655;28;20211;-42
2022/10/20 08:22:48;;;;;;;6.90;6.30;;;15.90;94.10;;;;;;5089404;28;20287;-44
2022/10/20 08:25:14;;;;;;;6.60;6.07;;;16.00;91.30;;;;;;5089349;28;20185;-44
2022/10/20 08:27:40;;;;;;;7.90;6.13;;;16.00;90.40;;;;;;5089549;28;20220;-47
2022/10/20 08:30:06;;;;;;;6.63;6.03;;;16.20;88.70;;;;;;5089311;28;20737;-49
2022/10/20 08:32:31;;;;;;;7.50;6.80;;;16.50;85.80;;;;;;5089653;28;20204;-44
2022/10/20 08:34:57;;;;;;;7.57;6.77;;;16.60;82.90;;;;;;5088974;28;20470;-46
2022/10/20 08:37:23;;;;;;;6.80;6.30;;;16.70;82.40;;;;;;5089196;28;20204;-49
2022/10/20 08:39:48;;;;;;;6.80;6.20;;;16.70;80.60;;;;;;5089901;28;20534;-47
2022/10/20 08:42:15;;;;;;;8.43;5.83;;;16.90;77.70;;;;;;5087811;28;20188;-46
2022/10/20 08:44:44;;;;;;;6.50;6.00;;;16.90;75.70;;;;;;5088487;28;20188;-44
2022/10/20 08:47:29;;;;;;;6.53;6.03;;;16.80;74.60;;;;;;5089228;28;20465;-44
2022/10/20 08:49:55;;;;;;;7.10;6.50;;;16.80;73.40;;;;;;5088630;28;20442;-45
2022/10/20 08:52:24;;;;;;;7.13;6.53;;;16.50;72.50;;;;;;5088898;28;20455;-44
2022/10/20 08:54:53;;;;;;;7.17;6.23;;;16.50;73.90;;;;;;5088965;28;20430;-48
2022/10/20 08:57:31;;;;;;;7.63;7.03;;;16.60;74.50;;;;;;5088730;28;20423;-47
2022/10/20 09:00:17;;;;;;;6.47;5.97;;;17.00;76.20;;;;;;5088941;28;20422;-49
2022/10/20 09:02:44;;;;;;;6.73;6.20;;;17.30;72.70;;;;;;5088765;28;20430;-46
2022/10/20 09:05:12;;;;;;;6.80;6.30;;;17.40;69.10;;;;;;5088715;28;20429;-44
2022/10/20 09:07:38;;;;;;;6.60;6.00;;;17.80;69.90;;;;;;5088721;28;20493;-49
2022/10/20 09:10:22;;;;;;;6.87;6.30;;;17.80;65.20;;;;;;5088107;28;20449;-45
2022/10/20 09:12:48;;;;;;;6.63;6.13;;;17.60;64.30;;;;;;5077232;28;20424;-44
2022/10/20 09:15:16;;;;;;;6.80;6.30;;;17.70;66.00;;;;;;5088641;28;20415;-47
2022/10/20 09:17:47;;;;;;;6.60;6.10;;;17.70;65.20;;;;;;5088843;28;20458;-48
2022/10/20 09:20:25;;;;;;;6.97;6.27;;;17.70;63.40;;;;;;5088448;28;20542;-44
2022/10/20 09:22:50;;;;;;;6.90;6.40;;;18.00;63.50;;;;;;5088461;28;20518;-46
2022/10/20 09:25:22;;;;;;;6.97;6.47;;;18.10;61.40;;;;;;5088608;28;20489;-48
2022/10/20 09:27:49;;;;;;;6.47;5.97;;;18.10;60.80;;;;;;5088328;28;20212;-45
2022/10/20 09:30:18;;;;;;;6.77;6.07;;;18.30;59.80;;;;;;5088942;28;20426;-48
2022/10/20 09:32:44;;;;;;;6.00;5.60;;;18.60;59.80;;;;;;5088455;28;20444;-46
2022/10/20 09:35:18;;;;;;;6.80;6.30;;;18.80;57.90;;;;;;5088497;28;20421;-44
2022/10/20 09:37:52;;;;;;;6.00;5.53;;;18.90;57.30;;;;;;5086084;28;20518;-49
2022/10/20 09:40:19;;;;;;;5.93;5.53;;;19.00;56.60;;;;;;5088119;28;20470;-44
2022/10/20 09:42:53;;;;;;;7.60;6.83;;;19.10;56.10;;;;;;5088337;28;20471;-47
2022/10/20 09:45:30;;;;;;;6.23;5.73;;;18.30;56.40;;;;;;5088959;28;20423;-46
2022/10/20 09:48:04;;;;;;;6.53;6.03;;;18.40;56.70;;;;;;5092472;28;20467;-47
2022/10/20 09:50:38;;;;;;;5.80;5.17;;;18.30;58.00;;;;;;5092579;28;20796;-44
2022/10/20 09:53:14;;;;;;;8.83;5.80;;;18.20;55.90;;;;;;5074552;28;20515;-45
2022/10/20 09:55:45;;;;;;;5.40;5.10;;;18.00;57.20;;;;;;5092528;28;21077;-45
2022/10/20 09:58:23;;;;;;;7.27;6.10;;;18.10;57.70;;;;;;5092195;28;20434;-44
2022/10/20 10:01:04;;;;;;;6.53;6.03;;;18.00;57.80;;;;;;5092403;28;20432;-46
2022/10/20 10:03:51;;;;;;;6.33;5.83;;;17.90;57.60;;;;;;5092214;28;20418;-43
2022/10/20 10:06:37;;;;;;;6.10;5.50;;;18.40;57.60;;;;;;5091239;28;20523;-44
2022/10/20 10:09:23;;;;;;;6.30;5.90;;;18.80;55.40;;;;;;5089002;28;20436;-46
2022/10/20 10:12:10;;;;;;;6.77;6.03;;;19.00;54.50;;;;;;5092029;28;20502;-44
2022/10/20 10:14:37;;;;;;;6.27;5.80;;;18.50;54.40;;;;;;5092101;28;20877;-46
2022/10/20 10:17:03;;;;;;;6.93;6.20;;;18.40;55.60;;;;;;5091888;28;20855;-45
2022/10/20 10:19:31;;;;;;;6.00;5.60;;;18.90;56.70;;;;;;5092149;28;20430;-46
2022/10/20 10:22:00;;;;;;;5.97;5.47;;;19.80;56.80;;;;;;5073368;28;20308;-46
2022/10/20 10:24:42;;;;;;;6.27;5.80;;;19.90;52.60;;;;;;5091834;28;20410;-47
2022/10/20 10:27:28;;;;;;;6.30;5.73;;;20.70;50.30;;;;;;5091845;28;20465;-43
2022/10/20 10:29:55;;;;;;;6.70;6.20;;;21.30;48.70;;;;;;5091779;28;20764;-45
2022/10/20 10:32:25;;;;;;;6.90;6.40;;;21.60;47.60;;;;;;5091704;28;20897;-44
2022/10/20 10:34:56;;;;;;;6.30;5.80;;;21.60;46.70;;;;;;5090908;28;20859;-46
2022/10/20 10:37:22;;;;;;;6.87;6.30;;;21.80;45.30;;;;;;5090273;28;20447;-49
2022/10/20 10:39:47;;;;;;;6.70;6.20;;;22.10;44.70;;;;;;5091683;28;20422;-45
2022/10/20 10:42:13;;;;;;;7.50;7.00;;;21.60;45.00;;;;;;5073627;28;20507;-45
2022/10/20 10:44:59;;;;;;;7.60;7.00;;;21.00;45.40;;;;;;5091228;28;20197;-46
2022/10/20 10:47:36;;;;;;;6.00;5.50;;;21.50;45.40;;;;;;5091356;28;20582;-45
2022/10/20 10:50:25;;;;;;;5.67;5.27;;;22.00;45.70;;;;;;5091407;28;20855;-49
2022/10/20 10:52:51;;;;;;;6.67;6.17;;;21.60;41.70;;;;;;5091610;28;20418;-44
2022/10/20 10:55:26;;;;;;;6.03;5.63;;;21.80;42.10;;;;;;5091228;28;20767;-44
2022/10/20 10:58:15;;;;;;;5.70;5.30;;;21.30;42.50;;;;;;5090902;28;20685;-47
2022/10/20 11:00:49;;;;;;;6.20;5.70;;;21.50;41.90;;;;;;5091162;28;20939;-45
2022/10/20 11:03:36;;;;;;;6.47;5.97;;;21.70;42.90;;;;;;5090323;28;20902;-48
2022/10/20 11:06:11;;;;;;;6.30;5.80;;;22.00;42.00;;;;;;5091257;28;20858;-46
2022/10/20 11:08:57;;;;;;;6.67;6.27;;;21.70;42.00;;;;;;5090933;28;20422;-48
2022/10/20 11:11:51;;;;;;;6.33;5.80;;;21.30;40.50;;;;;;5091027;28;20628;-47
2022/10/20 11:14:45;;;;;;;6.50;6.00;;;21.80;41.70;;;;;;5079835;28;20433;-44
2022/10/20 11:17:29;;;;;;;6.30;5.80;;;20.80;40.00;;;;;;5091070;28;20492;-43
2022/10/20 11:20:08;;;;;;;7.10;6.60;;;20.50;40.90;;;;;;5090642;28;20517;-45
2022/10/20 11:23:02;;;;;;;7.30;6.60;;;19.80;42.00;;;;;;5090630;28;20736;-44
2022/10/20 11:25:45;;;;;;;7.43;6.27;;;20.10;43.80;;;;;;5090857;28;20786;-47
2022/10/20 11:28:45;;;;;;;10.23;7.27;;;20.80;43.10;;;;;;5090951;28;20492;-46
2022/10/20 11:31:40;;;;;;;6.77;6.17;;;21.20;40.50;;;;;;5071520;28;20450;-47
2022/10/20 11:34:25;;;;;;;6.90;6.33;;;21.80;40.90;;;;;;5081832;28;20430;-47
2022/10/20 11:37:24;;;;;;;8.10;5.77;;;21.70;38.70;;;;;;5090533;28;20429;-44
2022/10/20 11:40:07;;;;;;;6.40;5.90;;;21.40;39.30;;;;;;5090248;28;20411;-48
2022/10/20 11:42:55;;;;;;;6.40;6.00;;;21.60;39.50;;;;;;5090298;28;20760;-46
2022/10/20 11:45:23;;;;;;;6.67;6.00;;;22.20;39.20;;;;;;5090096;28;21024;-44
2022/10/20 11:47:52;;;;;;;7.17;6.67;;;22.50;38.60;;;;;;5090356;28;20454;-49
2022/10/20 11:50:18;;;;;;;7.10;6.40;;;21.50;37.80;;;;;;5090189;28;20437;-44
2022/10/20 11:52:54;;;;;;;7.10;6.60;;;21.90;38.50;;;;;;5090269;28;20407;-48
2022/10/20 11:55:56;;;;;;;6.73;6.30;;;21.80;37.00;;;;;;5090296;28;21070;-49
2022/10/20 11:58:34;;;;;;;7.10;6.60;;;21.60;37.70;;;;;;5089587;28;20460;-46
2022/10/20 12:01:21;;;;;;;8.00;7.30;;;20.90;38.50;;;;;;5089943;28;20398;-47
2022/10/20 12:04:20;;;;;;;6.80;6.30;;;21.20;38.80;;;;;;5089765;28;20896;-45
2022/10/20 12:06:55;;;;;;;8.20;7.50;;;20.60;38.50;;;;;;5089785;28;20822;-49
2022/10/20 12:09:43;;;;;;;7.10;6.50;;;21.00;39.70;;;;;;5089597;28;20523;-47
2022/10/20 12:12:40;;;;;;;7.50;7.00;;;21.70;39.00;;;;;;5090346;28;20415;-47
2022/10/20 12:15:20;;;;;;;7.90;7.20;;;21.40;37.30;;;;;;5089467;28;20427;-49
2022/10/20 12:17:46;;;;;;;7.17;6.47;;;20.20;39.20;;;;;;5082485;28;20833;-47
2022/10/20 12:20:34;;;;;;;8.17;6.97;;;20.20;39.10;;;;;;5086693;28;20792;-48
2022/10/20 12:23:02;;;;;;;7.10;6.60;;;20.10;39.60;;;;;;5089559;28;20446;-44
2022/10/20 12:25:38;;;;;;;7.70;7.10;;;20.70;40.20;;;;;;5088295;28;20427;-47
2022/10/20 12:28:19;;;;;;;7.17;6.67;;;21.30;39.00;;;;;;5089340;28;20450;-44
2022/10/20 12:31:03;;;;;;;7.50;6.90;;;21.60;38.50;;;;;;5089321;28;20765;-49
2022/10/20 12:33:53;;;;;;;7.07;6.57;;;22.10;38.20;;;;;;5089337;28;20834;-49
2022/10/20 12:36:18;;;;;;;7.83;7.23;;;22.30;36.50;;;;;;5089641;28;21011;-46
2022/10/20 12:38:53;;;;;;;7.40;6.77;;;21.10;36.20;;;;;;5089435;28;20411;-47
2022/10/20 12:41:34;;;;;;;7.50;7.00;;;20.70;37.70;;;;;;5089531;28;20204;-48
2022/10/20 12:44:14;;;;;;;7.70;7.10;;;21.20;37.70;;;;;;5089424;28;20413;-49
2022/10/20 12:46:50;;;;;;;8.20;7.50;;;21.10;37.70;;;;;;5087447;28;20905;-46
2022/10/20 12:49:24;;;;;;;8.00;7.30;;;21.50;37.70;;;;;;5089556;28;20827;-44
2022/10/20 12:51:53;;;;;;;7.43;6.83;;;21.70;38.00;;;;;;5089066;28;20410;-46
2022/10/20 12:54:39;;;;;;;7.57;6.97;;;21.70;37.20;;;;;;5089107;28;20407;-46
2022/10/20 12:57:26;;;;;;;7.43;6.93;;;21.40;38.10;;;;;;5089067;28;20425;-47
2022/10/20 12:59:51;;;;;;;8.60;8.00;;;21.20;37.20;;;;;;5089073;28;20441;-47
2022/10/20 13:02:17;;;;;;;8.20;7.57;;;21.30;38.70;;;;;;5088843;28;20453;-45
2022/10/20 13:04:57;;;;;;;8.37;7.67;;;20.80;39.20;;;;;;5088614;28;20585;-45
2022/10/20 13:07:45;;;;;;;8.97;8.27;;;21.10;40.00;;;;;;5070382;28;20232;-45